Time;durP1;ratioP1;P1;durP2;ratioP2;P2;SDS_P1;SDS_P2;PMS_P1;PMS_P2;Temp;Humidity;BMP_temperature;BMP_pressure;BME280_temperature;BME280_humidity;BME280_pressure;Samples;Min_cycle;Max_cycle;Signal;HPM_P1;HPM_P2
2022/09/25 00:02:32;;;;;;;;;;;;;;;;;;20670430;28;19925;-58
2022/09/25 00:12:34;;;;;;;;;;;;;;;;;;20669700;28;19933;-57
2022/09/25 00:22:36;;;;;;;;;;;;;;;;;;20669679;28;19932;-60
2022/09/25 00:32:38;;;;;;;;;;;;;;;;;;20667517;28;19925;-60
2022/09/25 00:42:40;;;;;;;;;;;;;;;;;;20667480;28;19972;-57
2022/09/25 00:52:42;;;;;;;;;;;;;;;;;;20667268;28;19933;-58
2022/09/25 01:02:44;;;;;;;;;;;;;;;;;;20666654;28;19972;-61
2022/09/25 01:12:47;;;;;;;;;;;;;;;;;;20666083;28;19926;-56
2022/09/25 01:22:51;;;;;;;;;;;;;;;;;;20665684;28;19926;-57
2022/09/25 01:32:57;;;;;;;;;;;;;;;;;;20663132;28;20432;-60
2022/09/25 01:43:00;;;;;;;;;;;;;;;;;;20670888;28;19930;-61
2022/09/25 01:53:04;;;;;;;;;;;;;;;;;;20681457;28;19933;-60
2022/09/25 02:03:14;;;;;;;;;;;;;;;;;;20680016;28;19973;-65
2022/09/25 02:13:27;;;;;;;;;;;;;;;;;;20679182;28;20486;-58
2022/09/25 02:23:43;;;;;;;;;;;;;;;;;;20676915;28;19926;-58
2022/09/25 02:33:55;;;;;;;;;;;;;;;;;;20676728;28;19972;-57
2022/09/25 02:44:02;;;;;;;;;;;;;;;;;;20675920;28;19926;-66
2022/09/25 02:54:09;;;;;;;;;;;;;;;;;;20674994;28;20382;-63
2022/09/25 03:04:15;;;;;;;;;;;;;;;;;;20675351;28;20478;-61
2022/09/25 03:14:23;;;;;;;;;;;;;;;;;;20674013;28;20306;-59
2022/09/25 03:24:31;;;;;;;;;;;;;;;;;;20672993;28;19949;-59
2022/09/25 03:34:35;;;;;;;;;;;;;;;;;;20671721;28;19940;-63
2022/09/25 03:44:37;;;;;;;;;;;;;;;;;;20670892;28;19972;-58
2022/09/25 03:54:39;;;;;;;;;;;;;;;;;;20671328;28;19932;-59
2022/09/25 04:04:42;;;;;;;;;;;;;;;;;;20669472;28;19932;-69
2022/09/25 04:14:46;;;;;;;;;;;;;;;;;;20670677;28;19933;-58
2022/09/25 04:24:48;;;;;;;;;;;;;;;;;;20668542;28;19944;-69
2022/09/25 04:34:50;;;;;;;;;;;;;;;;;;20668075;28;19926;-59
2022/09/25 04:44:52;;;;;;;;;;;;;;;;;;20667975;28;19926;-64
2022/09/25 04:54:54;;;;;;;;;;;;;;;;;;20667031;28;19926;-59
2022/09/25 05:04:57;;;;;;;;;;;;;;;;;;20666359;28;19976;-59
2022/09/25 05:14:59;;;;;;;;;;;;;;;;;;20668169;28;19926;-62
2022/09/25 05:25:02;;;;;;;;;;;;;;;;;;20682281;28;19948;-68
2022/09/25 05:35:04;;;;;;;;;;;;;;;;;;20681429;28;19925;-60
2022/09/25 05:45:06;;;;;;;;;;;;;;;;;;20680910;28;20397;-70
2022/09/25 05:55:09;;;;;;;;;;;;;;;;;;20681425;28;19961;-69
2022/09/25 06:05:11;;;;;;;;;;;;;;;;;;20680152;28;19925;-57
2022/09/25 06:15:13;;;;;;;;;;;;;;;;;;20679334;28;20006;-69
2022/09/25 06:25:16;;;;;;;;;;;;;;;;;;20676886;28;19925;-63
2022/09/25 06:35:18;;;;;;;;;;;;;;;;;;20676573;28;20053;-59
2022/09/25 06:45:20;;;;;;;;;;;;;;;;;;20676542;28;20346;-58
2022/09/25 06:55:22;;;;;;;;;;;;;;;;;;20675916;28;19925;-59
2022/09/25 07:05:24;;;;;;;;;;;;;;;;;;20675035;28;19933;-68
2022/09/25 07:15:26;;;;;;;;;;;;;;;;;;20674159;28;19926;-58
2022/09/25 07:25:29;;;;;;;;;;;;;;;;;;20673529;28;19993;-66
2022/09/25 07:35:31;;;;;;;;;;;;;;;;;;20672642;28;19925;-70
2022/09/25 07:45:33;;;;;;;;;;;;;;;;;;20672444;28;20270;-70
2022/09/25 07:55:35;;;;;;;;;;;;;;;;;;20672077;28;19925;-69
2022/09/25 08:05:37;;;;;;;;;;;;;;;;;;20670607;28;19926;-59
2022/09/25 08:15:38;;;;;;;;;;;;;;;;;;20671546;28;20013;-63
2022/09/25 08:25:40;;;;;;;;;;;;;;;;;;20668863;28;19932;-68
2022/09/25 08:35:42;;;;;;;;;;;;;;;;;;20668783;28;19972;-58
2022/09/25 08:56:13;;;;;;;;;;;;;;;;;;20666488;28;19926;-59
2022/09/25 09:06:15;;;;;;;;;;;;;;;;;;20666817;28;19941;-57
2022/09/25 09:16:16;;;;;;;;;;;;;;;;;;20665935;28;19926;-60
2022/09/25 09:26:18;;;;;;;;;;;;;;;;;;20666839;28;19926;-57
2022/09/25 09:36:20;;;;;;;;;;;;;;;;;;20665784;28;19926;-58
2022/09/25 09:46:22;;;;;;;;;;;;;;;;;;20664471;28;19926;-59
2022/09/25 09:56:23;;;;;;;;;;;;;;;;;;20663779;28;19965;-58
2022/09/25 10:06:25;;;;;;;;;;;;;;;;;;20671620;28;19944;-57
2022/09/25 10:16:27;;;;;;;;;;;;;;;;;;20679059;28;19984;-58
2022/09/25 10:26:28;;;;;;;;;;;;;;;;;;20677831;28;20331;-58
2022/09/25 10:36:30;;;;;;;;;;;;;;;;;;20676574;28;19926;-59
2022/09/25 10:56:52;;;;;;;;;;;;;;;;;;20675774;28;20003;-61
2022/09/25 11:06:56;;;;;;;;;;;;;;;;;;20675047;28;20020;-58
2022/09/25 11:16:57;;;;;;;;;;;;;;;;;;20674374;28;20322;-67
2022/09/25 11:26:59;;;;;;;;;;;;;;;;;;20674304;28;20351;-63
2022/09/25 11:37:01;;;;;;;;;;;;;;;;;;20672508;28;20432;-66
2022/09/25 11:47:03;;;;;;;;;;;;;;;;;;20671171;28;19926;-59
2022/09/25 11:57:05;;;;;;;;;;;;;;;;;;20671291;28;19929;-61
2022/09/25 12:07:07;;;;;;;;;;;;;;;;;;20670264;28;19926;-64
2022/09/25 12:17:09;;;;;;;;;;;;;;;;;;20670128;28;19932;-69
2022/09/25 12:27:10;;;;;;;;;;;;;;;;;;20671882;28;19980;-71
2022/09/25 12:37:12;;;;;;;;;;;;;;;;;;20672678;28;19933;-70
2022/09/25 12:47:14;;;;;;;;;;;;;;;;;;20666951;28;19926;-66
2022/09/25 12:57:16;;;;;;;;;;;;;;;;;;20668401;28;20374;-69
2022/09/25 13:07:18;;;;;;;;;;;;;;;;;;20667922;28;20353;-68
2022/09/25 13:17:20;;;;;;;;;;;;;;;;;;20667461;28;20448;-70
2022/09/25 13:27:23;;;;;;;;;;;;;;;;;;20681955;28;20405;-59
2022/09/25 13:37:25;;;;;;;;;;;;;;;;;;20686797;28;19926;-71
2022/09/25 13:47:28;;;;;;;;;;;;;;;;;;20692793;28;20282;-69
2022/09/25 13:57:31;;;;;;;;;;;;;;;;;;20683053;28;19933;-71
2022/09/25 14:07:33;;;;;;;;;;;;;;;;;;20680392;28;19999;-70
2022/09/25 14:17:35;;;;;;;;;;;;;;;;;;20679497;28;19926;-59
2022/09/25 14:27:37;;;;;;;;;;;;;;;;;;20678053;28;20278;-60
2022/09/25 14:37:39;;;;;;;;;;;;;;;;;;20677681;28;19933;-60
2022/09/25 14:47:43;;;;;;;;;;;;;;;;;;20675835;28;19980;-59
2022/09/25 14:57:47;;;;;;;;;;;;;;;;;;20676321;28;20209;-59
2022/09/25 15:07:49;;;;;;;;;;;;;;;;;;20676082;28;20341;-65
2022/09/25 15:17:51;;;;;;;;;;;;;;;;;;20674503;28;19926;-59
2022/09/25 15:27:53;;;;;;;;;;;;;;;;;;20673924;28;20341;-59
2022/09/25 15:37:56;;;;;;;;;;;;;;;;;;20672580;28;19926;-57
2022/09/25 15:47:57;;;;;;;;;;;;;;;;;;20671898;28;20423;-57
2022/09/25 15:57:59;;;;;;;;;;;;;;;;;;20671452;28;20387;-69
2022/09/25 16:08:02;;;;;;;;;;;;;;;;;;20672380;28;19926;-58
2022/09/25 16:18:03;;;;;;;;;;;;;;;;;;20671000;28;20274;-58
2022/09/25 16:28:05;;;;;;;;;;;;;;;;;;20668664;28;19980;-58
2022/09/25 16:38:07;;;;;;;;;;;;;;;;;;20669541;28;20001;-58
2022/09/25 16:48:08;;;;;;;;;;;;;;;;;;20669509;28;19926;-65
2022/09/25 16:58:10;;;;;;;;;;;;;;;;;;20668402;28;19933;-71
2022/09/25 17:08:13;;;;;;;;;;;;;;;;;;20668291;28;19930;-60
2022/09/25 17:18:15;;;;;;;;;;;;;;;;;;20681276;28;19926;-60
2022/09/25 17:28:19;;;;;;;;;;;;;;;;;;20682181;28;19976;-70
2022/09/25 17:38:20;;;;;;;;;;;;;;;;;;20681693;28;20052;-61
2022/09/25 17:48:23;;;;;;;;;;;;;;;;;;20682272;28;19949;-69
2022/09/25 17:58:25;;;;;;;;;;;;;;;;;;20680467;28;20013;-68
2022/09/25 18:08:27;;;;;;;;;;;;;;;;;;20680216;28;19971;-67
2022/09/25 18:22:15;;;;;;;;;;;;;;;;;;20679206;28;19930;-71
2022/09/25 18:28:50;;;;;;;;;;;;;;;;;;20679773;28;20072;-58
2022/09/25 18:38:52;;;;;;;;;;;;;;;;;;20678548;28;19961;-63
2022/09/25 18:48:56;;;;;;;;;;;;;;;;;;20677038;28;19926;-70
2022/09/25 18:58:58;;;;;;;;;;;;;;;;;;20677133;28;20344;-66
2022/09/25 19:09:03;;;;;;;;;;;;;;;;;;20677195;28;19925;-65
2022/09/25 19:19:04;;;;;;;;;;;;;;;;;;20679605;28;19930;-69
2022/09/25 19:29:07;;;;;;;;;;;;;;;;;;20679668;28;19981;-61
2022/09/25 19:39:08;;;;;;;;;;;;;;;;;;20677876;28;20378;-70
2022/09/25 19:49:10;;;;;;;;;;;;;;;;;;20676077;28;19925;-70
2022/09/25 19:59:12;;;;;;;;;;;;;;;;;;20672213;28;19976;-61
2022/09/25 20:09:14;;;;;;;;;;;;;;;;;;20673611;28;20361;-67
2022/09/25 20:19:18;;;;;;;;;;;;;;;;;;20672422;28;19926;-69
2022/09/25 20:29:23;;;;;;;;;;;;;;;;;;20669917;28;20025;-69
2022/09/25 20:39:26;;;;;;;;;;;;;;;;;;20668763;28;19926;-68
2022/09/25 20:49:29;;;;;;;;;;;;;;;;;;20668322;28;19926;-68
2022/09/25 20:59:30;;;;;;;;;;;;;;;;;;20667599;28;19949;-64
2022/09/25 21:09:32;;;;;;;;;;;;;;;;;;20667796;28;19930;-70
2022/09/25 21:19:34;;;;;;;;;;;;;;;;;;20665224;28;20402;-62
2022/09/25 21:29:36;;;;;;;;;;;;;;;;;;20665693;28;19976;-68
2022/09/25 21:39:39;;;;;;;;;;;;;;;;;;20665585;28;19926;-59
2022/09/25 21:49:41;;;;;;;;;;;;;;;;;;20665915;28;20021;-67
2022/09/25 21:59:43;;;;;;;;;;;;;;;;;;20669500;28;19973;-67
2022/09/25 22:09:45;;;;;;;;;;;;;;;;;;20680104;28;19968;-67
2022/09/25 22:19:47;;;;;;;;;;;;;;;;;;20680344;28;19925;-67
2022/09/25 22:29:48;;;;;;;;;;;;;;;;;;20679164;28;20383;-63
2022/09/25 22:39:50;;;;;;;;;;;;;;;;;;20679162;28;19996;-60
2022/09/25 22:49:52;;;;;;;;;;;;;;;;;;20677707;28;19940;-66
2022/09/25 22:59:53;;;;;;;;;;;;;;;;;;20676317;28;19965;-59
2022/09/25 23:09:55;;;;;;;;;;;;;;;;;;20674440;28;20015;-60
2022/09/25 23:19:57;;;;;;;;;;;;;;;;;;20674352;28;19933;-58
2022/09/25 23:29:58;;;;;;;;;;;;;;;;;;20673648;28;19926;-59
2022/09/25 23:39:59;;;;;;;;;;;;;;;;;;20673042;28;19926;-62
2022/09/25 23:50:01;;;;;;;;;;;;;;;;;;20672545;28;19929;-68
